createdAt,value
2019-02-27T00:00:33.460Z,26.43
2019-02-27T00:03:02.306Z,27.30
2019-02-27T00:05:31.071Z,26.03
2019-02-27T00:07:59.845Z,26.47
2019-02-27T00:10:28.612Z,25.10
2019-02-27T00:12:57.364Z,25.77
2019-02-27T00:15:26.134Z,25.43
2019-02-27T00:17:54.887Z,26.50
2019-02-27T00:20:23.652Z,26.97
2019-02-27T00:22:52.421Z,27.67
2019-02-27T00:25:21.193Z,26.27
2019-02-27T00:27:50.054Z,25.83
2019-02-27T00:30:18.888Z,26.63
2019-02-27T00:32:50.935Z,25.20
2019-02-27T00:35:18.226Z,26.93
2019-02-27T00:37:47.083Z,25.03
2019-02-27T00:40:15.918Z,26.20
2019-02-27T00:42:44.696Z,26.03
2019-02-27T00:45:13.523Z,24.30
2019-02-27T00:47:42.295Z,24.40
2019-02-27T00:50:11.068Z,27.60
2019-02-27T00:52:39.944Z,30.60
2019-02-27T00:55:09.712Z,28.73
2019-02-27T00:57:38.472Z,27.50
2019-02-27T01:00:15.853Z,29.37
2019-02-27T01:02:44.644Z,28.23
2019-02-27T01:05:13.506Z,29.10
2019-02-27T01:07:42.383Z,27.10
2019-02-27T01:10:12.877Z,26.70
2019-02-27T01:12:41.743Z,25.20
2019-02-27T01:15:12.218Z,26.20
2019-02-27T01:17:40.989Z,24.60
2019-02-27T01:20:12.296Z,23.67
2019-02-27T01:22:41.064Z,25.60
2019-02-27T01:25:09.997Z,25.63
2019-02-27T01:27:38.767Z,25.47
2019-02-27T01:30:13.083Z,24.30
2019-02-27T01:32:41.863Z,24.90
2019-02-27T01:35:11.524Z,24.20
2019-02-27T01:37:40.365Z,25.47
2019-02-27T01:40:11.955Z,25.67
2019-02-27T01:42:40.717Z,25.53
2019-02-27T01:45:12.470Z,26.93
2019-02-27T01:47:41.235Z,26.97
2019-02-27T01:50:30.474Z,28.90
2019-02-27T01:52:59.243Z,27.87
2019-02-27T01:55:28.004Z,27.20
2019-02-27T01:57:56.770Z,30.87
2019-02-27T02:00:25.633Z,34.40
2019-02-27T02:02:54.386Z,37.30
2019-02-27T02:05:26.135Z,33.83
2019-02-27T02:07:53.630Z,34.37
2019-02-27T02:10:22.474Z,31.57
2019-02-27T02:12:54.551Z,29.60
2019-02-27T02:15:27.275Z,29.53
2019-02-27T02:18:11.896Z,28.27
2019-02-27T02:21:03.702Z,28.80
2019-02-27T02:23:44.919Z,27.87
2019-02-27T02:26:38.442Z,26.10
2019-02-27T02:29:22.009Z,25.30
2019-02-27T02:31:53.747Z,24.13
2019-02-27T02:34:31.155Z,25.67
2019-02-27T02:37:20.834Z,29.17
2019-02-27T02:39:54.762Z,32.43
2019-02-27T02:42:40.953Z,25.83
2019-02-27T02:45:24.523Z,23.63
2019-02-27T02:48:20.312Z,25.93
2019-02-27T02:51:11.148Z,27.03
2019-02-27T02:53:49.198Z,27.47
2019-02-27T02:56:29.733Z,23.33
2019-02-27T02:59:34.093Z,22.13
2019-02-27T03:02:05.765Z,22.07
2019-02-27T03:04:55.177Z,21.73
2019-02-27T03:07:26.849Z,25.63
2019-02-27T03:10:17.953Z,24.63
2019-02-27T03:13:07.106Z,23.07
2019-02-27T03:15:37.646Z,23.23
2019-02-27T03:18:18.272Z,24.20
2019-02-27T03:20:53.213Z,24.63
2019-02-27T03:23:52.549Z,27.37
2019-02-27T03:26:33.221Z,28.40
2019-02-27T03:29:17.361Z,24.93
2019-02-27T03:32:01.417Z,27.53
2019-02-27T03:34:50.908Z,26.73
2019-02-27T03:37:24.832Z,25.73
2019-02-27T03:39:59.191Z,25.60
2019-02-27T03:42:36.819Z,26.10
2019-02-27T03:45:30.650Z,23.50
2019-02-27T03:48:04.416Z,20.87
2019-02-27T03:50:56.777Z,26.53
2019-02-27T03:53:46.421Z,22.83
2019-02-27T03:56:33.144Z,21.73
2019-02-27T03:59:06.321Z,20.60
2019-02-27T04:01:41.016Z,20.20
2019-02-27T04:04:29.546Z,21.40
2019-02-27T04:07:14.343Z,20.73
2019-02-27T04:09:43.212Z,20.57
2019-02-27T04:12:16.200Z,21.27
2019-02-27T04:14:42.710Z,22.97
2019-02-27T04:17:11.564Z,23.10
2019-02-27T04:19:40.584Z,23.47
2019-02-27T04:22:09.408Z,23.37
2019-02-27T04:24:38.208Z,22.73
2019-02-27T04:27:06.964Z,21.40
2019-02-27T04:29:40.801Z,21.67
2019-02-27T04:32:09.607Z,21.03
2019-02-27T04:34:36.803Z,20.03
2019-02-27T04:37:05.639Z,20.13
2019-02-27T04:39:35.786Z,20.40
2019-02-27T04:42:04.895Z,21.30
2019-02-27T04:44:35.950Z,21.70
2019-02-27T04:47:04.324Z,21.73
2019-02-27T04:49:34.860Z,24.57
2019-02-27T04:52:03.746Z,23.90
2019-02-27T04:54:32.595Z,27.13
2019-02-27T04:57:01.447Z,28.27
2019-02-27T04:59:30.226Z,29.13
2019-02-27T05:01:59.077Z,28.80
2019-02-27T05:04:27.844Z,26.73
2019-02-27T05:06:56.635Z,25.53
2019-02-27T05:09:25.472Z,25.70
2019-02-27T05:11:54.236Z,25.63
2019-02-27T05:14:24.842Z,27.03
2019-02-27T05:16:53.579Z,29.20
2019-02-27T05:19:22.419Z,26.10
2019-02-27T05:21:52.571Z,24.63
2019-02-27T05:24:21.989Z,23.17
2019-02-27T05:26:50.769Z,24.23
2019-02-27T05:29:19.523Z,41.73
2019-02-27T05:31:50.192Z,28.63
2019-02-27T05:34:18.898Z,23.90
2019-02-27T05:36:47.656Z,24.43
2019-02-27T05:39:17.274Z,26.07
2019-02-27T05:41:46.709Z,23.17
2019-02-27T05:44:15.480Z,23.43
2019-02-27T05:46:44.321Z,22.07
2019-02-27T05:49:13.098Z,24.67
2019-02-27T05:51:41.944Z,23.80
2019-02-27T05:54:10.786Z,24.67
2019-02-27T05:56:39.585Z,30.53
2019-02-27T05:59:08.351Z,29.90
2019-02-27T06:01:38.283Z,37.90
2019-02-27T06:04:07.541Z,30.13
2019-02-27T06:06:36.389Z,37.63
2019-02-27T06:09:10.066Z,39.93
2019-02-27T06:11:37.376Z,39.37
2019-02-27T06:14:06.229Z,46.80
2019-02-27T06:16:37.631Z,60.47
2019-02-27T06:19:05.599Z,41.93
2019-02-27T06:21:34.352Z,43.27
2019-02-27T06:24:03.114Z,46.47
2019-02-27T06:26:32.466Z,60.47
2019-02-27T06:29:01.746Z,38.07
2019-02-27T06:31:30.503Z,28.97
2019-02-27T06:33:59.511Z,23.83
2019-02-27T06:36:28.275Z,29.03
2019-02-27T06:39:00.159Z,31.43
2019-02-27T06:41:27.517Z,27.67
2019-02-27T06:43:58.880Z,22.80
2019-02-27T06:46:26.867Z,23.67
2019-02-27T06:48:56.496Z,24.60
2019-02-27T06:51:25.441Z,23.97
2019-02-27T06:53:54.208Z,22.93
2019-02-27T06:56:23.058Z,29.60
2019-02-27T06:58:51.804Z,26.30
2019-02-27T07:01:20.582Z,29.33
2019-02-27T07:03:49.416Z,27.13
2019-02-27T07:06:21.284Z,23.40
2019-02-27T07:08:48.664Z,28.23
2019-02-27T07:11:17.420Z,42.07
2019-02-27T07:13:46.197Z,43.50
2019-02-27T07:16:15.041Z,35.70
2019-02-27T07:18:43.802Z,33.27
2019-02-27T07:21:12.647Z,32.97
2019-02-27T07:23:41.485Z,30.70
2019-02-27T07:26:10.326Z,29.90
2019-02-27T07:28:43.177Z,33.63
2019-02-27T07:31:09.592Z,36.13
2019-02-27T07:33:40.694Z,38.60
2019-02-27T07:36:08.933Z,35.50
2019-02-27T07:38:37.687Z,34.07
2019-02-27T07:41:06.450Z,30.20
2019-02-27T07:43:35.226Z,28.70
2019-02-27T07:46:03.991Z,26.17
2019-02-27T07:48:32.755Z,25.27
2019-02-27T07:51:02.184Z,25.88
2019-02-27T07:53:30.965Z,26.27
2019-02-27T07:55:59.793Z,27.57
2019-02-27T07:58:28.906Z,25.03
2019-02-27T08:00:59.052Z,27.67
2019-02-27T08:03:28.388Z,27.73
2019-02-27T08:05:59.818Z,32.80
2019-02-27T08:08:28.808Z,30.43
2019-02-27T08:10:58.168Z,27.07
2019-02-27T08:13:29.670Z,26.70
2019-02-27T08:15:58.601Z,24.00
2019-02-27T08:18:30.396Z,26.00
2019-02-27T08:20:59.131Z,26.87
2019-02-27T08:23:28.507Z,24.72
2019-02-27T08:25:57.922Z,24.95
2019-02-27T08:28:27.258Z,24.80
2019-02-27T08:30:56.633Z,24.45
2019-02-27T08:33:26.060Z,23.47
2019-02-27T08:35:55.408Z,20.95
2019-02-27T08:38:24.762Z,21.93
2019-02-27T08:40:57.219Z,21.20
2019-02-27T08:43:25.267Z,19.35
2019-02-27T08:45:54.628Z,20.50
2019-02-27T08:48:23.993Z,19.15
2019-02-27T08:50:53.346Z,21.90
2019-02-27T08:53:25.848Z,22.20
2019-02-27T08:55:53.803Z,22.40
2019-02-27T08:58:23.173Z,19.20
2019-02-27T09:00:52.574Z,19.77
2019-02-27T09:03:22.011Z,20.68
2019-02-27T09:05:53.709Z,22.77
2019-02-27T09:08:22.478Z,23.73
2019-02-27T09:10:51.819Z,21.10
2019-02-27T09:13:21.163Z,27.42
2019-02-27T09:15:50.526Z,30.02
2019-02-27T09:18:19.940Z,20.50
2019-02-27T09:20:53.077Z,21.93
2019-02-27T09:23:20.481Z,23.90
2019-02-27T09:25:57.069Z,21.20
2019-02-27T09:28:20.952Z,21.33
2019-02-27T09:30:50.387Z,23.42
2019-02-27T09:33:20.006Z,21.62
2019-02-27T09:35:50.282Z,22.25
2019-02-27T09:38:24.126Z,22.50
2019-02-27T09:40:50.804Z,22.95
2019-02-27T09:43:20.180Z,25.08
2019-02-27T09:45:49.603Z,26.52
2019-02-27T09:48:19.364Z,26.40
2019-02-27T09:50:49.153Z,27.82
2019-02-27T09:53:18.553Z,35.63
2019-02-27T09:55:48.059Z,34.90
2019-02-27T09:58:17.411Z,38.05
2019-02-27T10:00:59.194Z,46.65
2019-02-27T10:03:26.629Z,81.42
2019-02-27T10:05:55.994Z,135.55
2019-02-27T10:08:26.148Z,113.47
2019-02-27T10:10:55.510Z,75.97
2019-02-27T10:13:24.874Z,47.78
2019-02-27T10:15:54.228Z,34.75
2019-02-27T10:18:23.592Z,60.15
2019-02-27T10:20:52.947Z,37.95
2019-02-27T10:23:22.313Z,44.33
2019-02-27T10:25:51.647Z,30.72
2019-02-27T10:28:21.007Z,30.10
2019-02-27T10:30:50.703Z,29.80
2019-02-27T10:33:20.265Z,29.15
2019-02-27T10:35:49.670Z,36.93
2019-02-27T10:38:18.488Z,32.05
2019-02-27T10:40:47.843Z,26.00
2019-02-27T10:43:17.263Z,23.98
2019-02-27T10:45:49.365Z,21.20
2019-02-27T10:48:17.767Z,20.82
2019-02-27T10:50:47.132Z,17.85
2019-02-27T10:53:16.496Z,19.48
2019-02-27T10:55:46.487Z,17.37
2019-02-27T10:58:16.937Z,15.68
2019-02-27T11:00:47.185Z,13.60
2019-02-27T11:03:16.567Z,13.90
2019-02-27T11:05:45.946Z,12.50
2019-02-27T11:08:15.377Z,13.18
2019-02-27T11:10:44.828Z,13.90
2019-02-27T11:13:14.177Z,16.57
2019-02-27T11:15:44.819Z,14.25
2019-02-27T11:18:14.862Z,15.60
2019-02-27T11:20:44.242Z,13.95
2019-02-27T11:23:13.622Z,13.38
2019-02-27T11:25:43.060Z,12.30
2019-02-27T11:28:12.408Z,10.93
2019-02-27T11:30:42.875Z,10.25
2019-02-27T11:33:24.812Z,10.85
2019-02-27T11:35:43.571Z,11.15
2019-02-27T11:38:12.984Z,10.93
2019-02-27T11:40:42.926Z,11.30
2019-02-27T11:43:12.364Z,10.93
2019-02-27T11:45:41.713Z,12.05
2019-02-27T11:48:11.059Z,10.65
2019-02-27T11:50:40.408Z,9.60
2019-02-27T11:53:09.754Z,9.43
2019-02-27T11:55:39.119Z,8.95
2019-02-27T11:58:08.497Z,11.38
2019-02-27T12:00:37.857Z,12.33
2019-02-27T12:03:08.650Z,21.55
2019-02-27T12:05:38.353Z,21.85
2019-02-27T12:08:07.757Z,20.05
2019-02-27T12:10:37.136Z,15.80
2019-02-27T12:13:06.718Z,20.00
2019-02-27T12:15:36.077Z,17.07
2019-02-27T12:18:05.542Z,14.98
2019-02-27T12:20:34.890Z,18.65
2019-02-27T12:23:07.530Z,17.48
2019-02-27T12:25:36.195Z,13.00
2019-02-27T12:28:06.339Z,12.55
2019-02-27T12:30:37.450Z,12.85
2019-02-27T12:33:07.132Z,12.80
2019-02-27T12:35:37.288Z,14.98
2019-02-27T12:38:08.141Z,21.70
2019-02-27T12:40:37.816Z,14.47
2019-02-27T12:43:07.230Z,11.78
2019-02-27T12:45:36.659Z,13.28
2019-02-27T12:48:06.037Z,13.32
2019-02-27T12:50:35.402Z,15.10
2019-02-27T12:53:04.977Z,11.97
2019-02-27T12:55:36.279Z,13.48
2019-02-27T12:58:05.610Z,12.25
2019-02-27T13:00:35.681Z,11.63
2019-02-27T13:03:08.346Z,11.85
2019-02-27T13:05:36.317Z,15.55
2019-02-27T13:08:05.692Z,14.93
2019-02-27T13:10:35.070Z,14.60
2019-02-27T13:13:04.515Z,14.43
2019-02-27T13:15:33.949Z,13.60
2019-02-27T13:18:03.389Z,25.62
2019-02-27T13:20:34.707Z,15.50
2019-02-27T13:23:05.089Z,14.87
2019-02-27T13:25:34.041Z,14.65
2019-02-27T13:28:03.401Z,13.90
2019-02-27T13:30:32.808Z,14.10
2019-02-27T13:33:02.332Z,13.30
2019-02-27T13:35:31.748Z,15.25
2019-02-27T13:38:01.125Z,15.48
2019-02-27T13:40:35.028Z,14.83
2019-02-27T13:43:02.283Z,12.70
2019-02-27T13:45:33.199Z,15.38
2019-02-27T13:48:05.776Z,15.90
2019-02-27T13:50:33.721Z,14.87
2019-02-27T13:53:03.103Z,13.85
2019-02-27T13:55:32.472Z,13.58
2019-02-27T13:58:03.732Z,13.75
2019-02-27T14:00:35.162Z,13.40
2019-02-27T14:03:04.632Z,15.15
2019-02-27T14:05:36.008Z,14.87
2019-02-27T14:08:05.164Z,17.10
2019-02-27T14:10:34.826Z,20.25
2019-02-27T14:13:08.771Z,26.20
2019-02-27T14:15:35.251Z,20.88
2019-02-27T14:18:04.796Z,21.70
2019-02-27T14:20:34.218Z,17.48
2019-02-27T14:23:03.650Z,18.07
2019-02-27T14:25:33.711Z,18.55
2019-02-27T14:28:03.136Z,18.65
2019-02-27T14:30:50.426Z,18.82
2019-02-27T14:33:20.623Z,14.90
2019-02-27T14:35:50.124Z,13.50
2019-02-27T14:38:21.805Z,16.20
2019-02-27T14:40:50.552Z,19.17
2019-02-27T14:43:19.909Z,17.98
2019-02-27T14:45:50.781Z,18.07
2019-02-27T14:48:21.616Z,15.95
2019-02-27T14:50:51.550Z,15.85
2019-02-27T14:53:21.009Z,15.20
2019-02-27T14:55:50.374Z,20.15
2019-02-27T14:58:24.092Z,15.70
2019-02-27T15:00:50.950Z,17.05
2019-02-27T15:03:20.308Z,22.17
2019-02-27T15:05:49.745Z,21.40
2019-02-27T15:08:19.164Z,22.13
2019-02-27T15:10:48.540Z,18.30
2019-02-27T15:13:17.977Z,22.35
2019-02-27T15:15:47.423Z,19.87
2019-02-27T15:18:16.786Z,22.42
2019-02-27T15:20:46.151Z,21.17
2019-02-27T15:23:15.513Z,21.15
2019-02-27T15:25:44.943Z,21.77
2019-02-27T15:28:14.306Z,22.67
2019-02-27T15:30:46.469Z,23.20
2019-02-27T15:33:16.390Z,25.52
2019-02-27T15:35:45.911Z,25.95
2019-02-27T15:38:15.330Z,30.10
2019-02-27T15:40:45.272Z,29.25
2019-02-27T15:43:17.348Z,29.65
2019-02-27T15:45:47.979Z,30.37
2019-02-27T15:48:16.883Z,43.58
2019-02-27T15:50:46.306Z,36.15
2019-02-27T15:53:15.891Z,34.92
2019-02-27T15:55:45.557Z,33.58
2019-02-27T15:58:14.415Z,37.20
2019-02-27T16:00:43.186Z,52.63
2019-02-27T16:03:12.143Z,57.97
2019-02-27T16:05:40.981Z,60.60
2019-02-27T16:08:09.774Z,53.47
2019-02-27T16:10:42.589Z,37.90
2019-02-27T16:13:09.021Z,33.90
2019-02-27T16:15:37.787Z,41.70
2019-02-27T16:18:06.636Z,37.70
2019-02-27T16:20:35.423Z,34.93
2019-02-27T16:23:05.229Z,32.30
2019-02-27T16:25:34.149Z,30.90
2019-02-27T16:28:02.974Z,42.13
2019-02-27T16:30:33.146Z,38.37
2019-02-27T16:33:02.118Z,37.83
2019-02-27T16:35:30.963Z,62.17
2019-02-27T16:37:59.818Z,88.67
2019-02-27T16:40:29.666Z,82.63
2019-02-27T16:42:58.490Z,69.07
2019-02-27T16:45:33.533Z,83.57
2019-02-27T16:48:01.069Z,55.73
2019-02-27T16:50:29.897Z,64.20
2019-02-27T16:52:58.747Z,53.13
2019-02-27T16:55:28.372Z,55.93
2019-02-27T16:57:57.841Z,70.17
2019-02-27T17:00:31.509Z,78.67
2019-02-27T17:03:00.280Z,52.73
2019-02-27T17:05:29.115Z,53.37
2019-02-27T17:08:02.224Z,42.40
2019-02-27T17:10:33.853Z,40.97
2019-02-27T17:13:02.628Z,42.40
2019-02-27T17:15:34.570Z,44.10
2019-02-27T17:18:02.055Z,48.90
2019-02-27T17:20:30.892Z,52.87
2019-02-27T17:22:59.746Z,51.63
2019-02-27T17:25:29.961Z,55.53
2019-02-27T17:27:59.054Z,62.53
2019-02-27T17:30:30.347Z,54.53
2019-02-27T17:33:01.376Z,51.80
2019-02-27T17:35:29.770Z,51.13
2019-02-27T17:37:58.569Z,47.77
2019-02-27T17:40:29.101Z,47.90
2019-02-27T17:42:58.213Z,46.57
2019-02-27T17:45:27.784Z,37.93
2019-02-27T17:47:56.644Z,35.80
2019-02-27T17:50:31.055Z,34.40
2019-02-27T17:52:56.089Z,40.53
2019-02-27T17:55:24.892Z,59.70
2019-02-27T17:57:57.725Z,73.10
2019-02-27T18:00:51.157Z,69.20
2019-02-27T18:03:20.438Z,57.13
2019-02-27T18:05:49.248Z,49.57
2019-02-27T18:08:18.125Z,51.33
2019-02-27T18:10:47.115Z,52.37
2019-02-27T18:13:15.954Z,56.77
2019-02-27T18:15:44.751Z,44.97
2019-02-27T18:18:13.661Z,39.37
2019-02-27T18:20:42.505Z,45.50
2019-02-27T18:23:11.284Z,45.30
2019-02-27T18:25:42.078Z,41.80
2019-02-27T18:28:10.855Z,52.97
2019-02-27T18:30:39.697Z,46.70
2019-02-27T18:33:13.605Z,48.80
2019-02-27T18:35:39.235Z,47.00
2019-02-27T18:38:08.030Z,44.10
2019-02-27T18:40:36.836Z,43.07
2019-02-27T18:43:05.839Z,46.60
2019-02-27T18:45:34.589Z,43.20
2019-02-27T18:48:03.427Z,40.90
2019-02-27T18:50:32.287Z,40.40
2019-02-27T18:53:01.175Z,31.17
2019-02-27T18:55:31.418Z,25.73
2019-02-27T18:58:00.387Z,96.47
2019-02-27T19:00:30.031Z,28.83
2019-02-27T19:03:04.774Z,25.10
2019-02-27T19:05:33.758Z,24.57
2019-02-27T19:08:02.665Z,32.53
2019-02-27T19:10:33.359Z,26.23
2019-02-27T19:13:02.246Z,25.67
2019-02-27T19:15:31.250Z,28.07
2019-02-27T19:18:00.136Z,25.93
2019-02-27T19:20:31.903Z,28.10
2019-02-27T19:23:00.729Z,30.10
2019-02-27T19:25:34.147Z,30.63
2019-02-27T19:28:00.188Z,30.30
2019-02-27T19:30:29.405Z,29.40
2019-02-27T19:33:01.790Z,30.00
2019-02-27T19:35:28.860Z,30.37
2019-02-27T19:37:57.613Z,32.70
2019-02-27T19:40:29.822Z,35.63
2019-02-27T19:43:02.164Z,36.10
2019-02-27T19:45:31.214Z,35.90
2019-02-27T19:48:00.053Z,29.10
2019-02-27T19:50:29.125Z,26.43
2019-02-27T19:53:03.328Z,32.17
2019-02-27T19:55:30.058Z,39.43
2019-02-27T19:57:58.841Z,40.07
2019-02-27T20:00:34.837Z,60.00
2019-02-27T20:03:02.789Z,52.50
2019-02-27T20:05:31.672Z,49.33
2019-02-27T20:08:02.360Z,44.20
2019-02-27T20:10:33.268Z,46.57
2019-02-27T20:13:01.815Z,43.37
2019-02-27T20:15:30.669Z,38.63
2019-02-27T20:17:59.537Z,47.03
2019-02-27T20:20:30.010Z,48.10
2019-02-27T20:22:58.955Z,49.50
2019-02-27T20:25:29.779Z,48.40
2019-02-27T20:27:58.967Z,48.63
2019-02-27T20:30:27.807Z,52.23
2019-02-27T20:32:56.650Z,53.03
2019-02-27T20:35:25.553Z,53.23
2019-02-27T20:37:54.399Z,51.87
2019-02-27T20:40:23.167Z,50.83
2019-02-27T20:42:54.870Z,50.97
2019-02-27T20:45:26.797Z,53.23
2019-02-27T20:48:00.530Z,51.63
2019-02-27T20:50:35.040Z,57.83
2019-02-27T20:52:59.993Z,52.17
2019-02-27T20:55:30.952Z,52.33
2019-02-27T20:57:59.400Z,51.47
2019-02-27T21:00:28.202Z,48.43
2019-02-27T21:02:57.039Z,50.27
2019-02-27T21:05:26.870Z,47.67
2019-02-27T21:08:00.907Z,51.30
2019-02-27T21:10:34.267Z,49.60
2019-02-27T21:13:03.035Z,52.93
2019-02-27T21:15:32.386Z,43.97
2019-02-27T21:18:02.136Z,46.73
2019-02-27T21:20:33.096Z,44.83
2019-02-27T21:23:01.548Z,40.33
2019-02-27T21:25:30.319Z,41.50
2019-02-27T21:27:59.169Z,41.07
2019-02-27T21:30:27.966Z,41.47
2019-02-27T21:32:56.739Z,43.40
2019-02-27T21:35:28.854Z,42.57
2019-02-27T21:37:56.103Z,41.20
2019-02-27T21:40:24.876Z,40.30
2019-02-27T21:42:53.706Z,43.20
2019-02-27T21:45:23.540Z,43.07
2019-02-27T21:47:52.944Z,40.30
2019-02-27T21:50:25.740Z,38.80
2019-02-27T21:52:55.600Z,39.53
2019-02-27T21:55:24.816Z,40.07
2019-02-27T21:57:53.685Z,39.67
2019-02-27T22:00:24.653Z,36.33
2019-02-27T22:02:54.789Z,34.40
2019-02-27T22:05:23.716Z,33.57
2019-02-27T22:07:52.725Z,33.13
2019-02-27T22:10:21.585Z,31.90
2019-02-27T22:12:50.460Z,28.37
2019-02-27T22:15:29.894Z,29.87
2019-02-27T22:17:58.665Z,27.23
2019-02-27T22:20:27.540Z,29.00
2019-02-27T22:22:56.367Z,26.53
2019-02-27T22:25:30.290Z,27.40
2019-02-27T22:27:58.274Z,27.90
2019-02-27T22:30:26.368Z,28.60
2019-02-27T22:32:55.196Z,28.53
2019-02-27T22:35:24.233Z,26.67
2019-02-27T22:37:53.074Z,25.67
2019-02-27T22:40:25.465Z,28.60
2019-02-27T22:42:54.303Z,46.27
2019-02-27T22:45:23.139Z,35.70
2019-02-27T22:47:54.009Z,27.80
2019-02-27T22:50:22.599Z,28.37
2019-02-27T22:52:54.579Z,32.87
2019-02-27T22:55:22.454Z,31.40
2019-02-27T22:57:51.294Z,22.40
2019-02-27T23:00:49.651Z,19.07
2019-02-27T23:03:18.681Z,18.80
2019-02-27T23:05:47.623Z,18.10
2019-02-27T23:08:16.467Z,17.80
2019-02-27T23:10:45.508Z,18.13
2019-02-27T23:13:14.377Z,16.87
2019-02-27T23:15:43.261Z,16.23
2019-02-27T23:18:12.157Z,18.80
2019-02-27T23:20:40.918Z,19.80
2019-02-27T23:23:09.745Z,19.07
2019-02-27T23:25:38.633Z,28.57
2019-02-27T23:28:07.470Z,24.87
2019-02-27T23:30:36.301Z,26.67
2019-02-27T23:33:05.111Z,28.93
2019-02-27T23:35:33.945Z,26.80
2019-02-27T23:38:03.298Z,24.37
2019-02-27T23:40:32.850Z,21.70
2019-02-27T23:43:03.399Z,31.50
2019-02-27T23:45:32.338Z,18.07
2019-02-27T23:48:02.207Z,21.53
2019-02-27T23:50:31.733Z,16.80
2019-02-27T23:53:00.625Z,23.07
2019-02-27T23:55:29.465Z,24.07
2019-02-27T23:57:58.563Z,19.87
